createdAt,value
2023-04-23T00:01:30.208Z,100105.50
2023-04-23T00:04:01.755Z,100094.84
2023-04-23T00:06:36.073Z,100103.34
2023-04-23T00:09:07.098Z,100103.94
2023-04-23T00:11:37.988Z,100100.66
2023-04-23T00:14:08.880Z,100094.91
2023-04-23T00:16:39.915Z,100102.13
2023-04-23T00:19:10.052Z,100091.41
2023-04-23T00:21:42.836Z,100090.16
2023-04-23T00:24:13.312Z,100092.03
2023-04-23T00:26:46.092Z,100088.78
2023-04-23T00:29:17.763Z,100084.88
2023-04-23T00:31:47.970Z,100087.13
2023-04-23T00:34:18.188Z,100082.00
2023-04-23T00:36:52.671Z,100086.94
2023-04-23T00:39:22.856Z,100087.78
2023-04-23T00:41:57.034Z,100084.28
2023-04-23T00:44:27.205Z,100084.50
2023-04-23T00:46:58.351Z,100070.28
2023-04-23T00:49:28.752Z,100084.06
2023-04-23T00:52:01.648Z,100077.88
2023-04-23T00:54:32.058Z,100076.84
2023-04-23T00:57:02.734Z,100070.28
2023-04-23T00:59:34.895Z,100070.28
2023-04-23T01:02:05.288Z,100072.53
2023-04-23T01:04:36.595Z,100072.94
2023-04-23T01:07:10.138Z,100068.00
2023-04-23T01:09:40.549Z,100073.75
2023-04-23T01:12:12.131Z,100068.84
2023-04-23T01:14:42.487Z,100061.84
2023-04-23T01:17:12.937Z,100058.72
2023-04-23T01:19:43.717Z,100059.97
2023-04-23T01:22:17.827Z,100066.56
2023-04-23T01:24:48.322Z,100068.00
2023-04-23T01:27:20.138Z,100067.19
2023-04-23T01:29:51.178Z,100066.75
2023-04-23T01:32:22.289Z,100067.38
2023-04-23T01:34:54.971Z,100068.84
2023-04-23T01:37:28.525Z,100063.28
2023-04-23T01:39:58.881Z,100062.28
2023-04-23T01:42:29.175Z,100061.44
2023-04-23T01:44:59.252Z,100064.31
2023-04-23T01:47:29.770Z,100061.44
2023-04-23T01:50:00.059Z,100058.16
2023-04-23T01:52:32.793Z,100063.13
2023-04-23T01:55:03.142Z,100054.25
2023-04-23T01:57:33.297Z,100071.72
2023-04-23T02:00:08.446Z,100062.47
2023-04-23T02:02:47.391Z,100061.44
2023-04-23T02:05:21.186Z,100052.00
2023-04-23T02:07:54.683Z,100052.19
2023-04-23T02:10:25.942Z,100042.97
2023-04-23T02:12:56.351Z,100045.81
2023-04-23T02:15:29.176Z,100041.50
2023-04-23T02:17:59.533Z,100046.66
2023-04-23T02:20:29.802Z,100043.75
2023-04-23T02:23:02.520Z,100039.81
2023-04-23T02:25:33.444Z,100044.34
2023-04-23T02:28:06.735Z,100042.50
2023-04-23T02:30:37.320Z,100036.72
2023-04-23T02:33:07.583Z,100031.78
2023-04-23T02:35:37.936Z,100031.75
2023-04-23T02:38:10.585Z,100040.59
2023-04-23T02:40:40.723Z,100035.22
2023-04-23T02:43:11.126Z,100042.81
2023-04-23T02:45:41.140Z,100029.69
2023-04-23T02:48:11.156Z,100035.66
2023-04-23T02:50:41.839Z,100031.75
2023-04-23T02:53:14.530Z,100039.59
2023-04-23T02:55:44.730Z,100042.09
2023-04-23T02:58:14.848Z,100037.00
2023-04-23T03:00:46.796Z,100033.09
2023-04-23T03:03:17.313Z,100027.72
2023-04-23T03:05:47.729Z,100031.63
2023-04-23T03:08:20.511Z,100013.69
2023-04-23T03:10:50.761Z,100009.13
2023-04-23T03:13:20.917Z,100028.50
2023-04-23T03:15:51.427Z,100036.53
2023-04-23T03:18:21.686Z,100032.06
2023-04-23T03:20:55.261Z,100037.25
2023-04-23T03:23:28.040Z,100056.16
2023-04-23T04:04:01.605Z,100000.09
2023-04-23T04:06:36.838Z,100005.25
2023-04-23T04:09:08.171Z,99995.75
2023-04-23T04:11:41.322Z,99984.03
2023-04-23T04:14:12.702Z,99991.41
2023-04-23T04:16:44.694Z,99997.59
2023-04-23T04:19:17.571Z,100002.56
2023-04-23T04:21:51.914Z,100002.41
2023-04-23T04:24:25.657Z,100014.38
2023-04-23T04:26:59.069Z,100016.69
2023-04-23T04:29:29.573Z,100028.25
2023-04-23T04:31:59.926Z,100031.66
2023-04-23T04:34:33.131Z,100029.97
2023-04-23T04:37:03.263Z,100029.31
2023-04-23T04:39:33.384Z,100037.88
2023-04-23T04:42:03.488Z,100027.25
2023-04-23T04:44:33.554Z,100030.97
2023-04-23T04:47:03.800Z,100026.06
2023-04-23T04:49:37.272Z,100036.53
2023-04-23T04:52:07.356Z,100030.19
2023-04-23T04:54:37.353Z,100030.63
2023-04-23T04:57:07.392Z,100038.03
2023-04-23T04:59:37.449Z,100035.78
2023-04-23T05:02:07.584Z,100030.66
2023-04-23T05:04:40.590Z,100027.41
2023-04-23T05:07:11.319Z,100031.91
2023-04-23T05:09:43.718Z,100041.38
2023-04-23T05:12:15.100Z,100031.28
2023-04-23T05:14:45.047Z,100043.63
2023-04-23T05:17:15.082Z,100032.72
2023-04-23T05:19:47.785Z,100037.25
2023-04-23T05:22:18.503Z,100033.09
2023-04-23T05:24:48.682Z,100039.66
2023-04-23T05:27:33.729Z,100035.56
2023-04-23T05:30:04.054Z,100038.84
2023-04-23T05:32:42.281Z,100036.75
2023-04-23T05:35:17.114Z,100041.72
2023-04-23T05:37:49.208Z,100034.88
2023-04-23T05:40:19.646Z,100037.50
2023-04-23T05:42:49.879Z,100047.09
2023-04-23T05:45:22.690Z,100043.28
2023-04-23T05:47:53.070Z,100050.06
2023-04-23T05:50:25.792Z,100045.88
2023-04-23T05:52:55.985Z,100044.41
2023-04-23T05:55:28.963Z,100045.00
2023-04-23T05:57:59.040Z,100047.03
2023-04-23T06:00:29.350Z,100046.69
2023-04-23T06:02:59.857Z,100052.03
2023-04-23T06:05:32.730Z,100048.53
2023-04-23T06:08:05.134Z,100052.81
2023-04-23T06:10:35.561Z,100049.44
2023-04-23T06:13:06.396Z,100049.72
2023-04-23T06:15:36.648Z,100054.81
2023-04-23T06:18:07.547Z,100048.75
2023-04-23T06:20:40.251Z,100055.63
2023-04-23T06:23:10.775Z,100049.94
2023-04-23T06:25:49.114Z,100050.13
2023-04-23T06:28:22.152Z,100048.38
2023-04-23T06:31:12.770Z,100054.13
2023-04-23T06:33:43.133Z,100056.19
2023-04-23T06:36:17.514Z,100051.22
2023-04-23T06:38:55.891Z,100056.38
2023-04-23T06:41:31.320Z,100059.03
2023-04-23T06:44:21.186Z,100057.88
2023-04-23T06:46:57.288Z,100051.88
2023-04-23T06:49:27.613Z,100048.94
2023-04-23T06:52:02.852Z,100057.13
2023-04-23T06:54:33.078Z,100044.75
2023-04-23T06:57:04.893Z,100057.91
2023-04-23T06:59:38.177Z,100050.28
2023-04-23T07:02:11.132Z,100050.69
2023-04-23T07:04:42.209Z,100049.00
2023-04-23T07:07:18.200Z,100055.34
2023-04-23T07:09:51.299Z,100055.63
2023-04-23T07:12:21.720Z,100060.59
2023-04-23T07:15:02.573Z,100061.50
2023-04-23T07:17:32.806Z,100052.00
2023-04-23T07:20:10.794Z,100059.38
2023-04-23T07:22:43.841Z,100063.25
2023-04-23T07:25:13.938Z,100066.81
2023-04-23T07:27:48.085Z,100069.75
2023-04-23T07:30:26.181Z,100071.44
2023-04-23T07:32:56.742Z,100070.34
2023-04-23T07:35:27.027Z,100065.13
2023-04-23T07:38:02.680Z,100073.34
2023-04-23T07:40:43.317Z,100068.84
2023-04-23T07:43:14.212Z,100064.34
2023-04-23T07:45:44.580Z,100078.50
2023-04-23T07:48:14.989Z,100083.84
2023-04-23T07:50:48.749Z,100081.66
2023-04-23T07:53:21.671Z,100087.28
2023-04-23T07:55:51.827Z,100084.59
2023-04-23T07:58:21.887Z,100093.31
2023-04-23T08:01:11.092Z,100092.72
2023-04-23T08:03:44.715Z,100094.16
2023-04-23T08:06:31.879Z,100096.84
2023-04-23T08:09:33.164Z,100095.06
2023-04-23T08:12:06.472Z,100095.69
2023-04-23T08:14:38.898Z,100091.78
2023-04-23T08:17:24.732Z,100096.72
2023-04-23T08:19:55.877Z,100097.19
2023-04-23T08:22:36.980Z,100100.50
2023-04-23T08:25:32.866Z,100095.75
2023-04-23T08:31:25.649Z,100095.56
2023-04-23T08:34:10.391Z,100093.47
2023-04-23T08:36:54.334Z,100099.03
2023-04-23T08:39:49.883Z,100106.66
2023-04-23T08:42:54.771Z,100090.56
2023-04-23T08:45:33.348Z,100095.69
2023-04-23T08:48:09.375Z,100095.69
2023-04-23T08:50:48.962Z,100097.13
2023-04-23T08:53:23.493Z,100097.03
2023-04-23T08:55:54.616Z,100095.16
2023-04-23T08:58:37.549Z,100092.44
2023-04-23T09:01:10.455Z,100086.81
2023-04-23T09:03:48.105Z,100106.81
2023-04-23T09:06:18.429Z,100101.94
2023-04-23T09:08:51.909Z,100104.16
2023-04-23T09:11:25.203Z,100100.66
2023-04-23T09:14:15.281Z,100111.22
2023-04-23T09:16:55.341Z,100102.19
2023-04-23T09:19:33.149Z,100100.81
2023-04-23T09:22:04.074Z,100109.06
2023-04-23T09:24:34.808Z,100103.56
2023-04-23T09:27:06.073Z,100104.97
2023-04-23T09:29:39.029Z,100108.63
2023-04-23T09:32:11.573Z,100104.31
2023-04-23T09:34:48.729Z,100105.22
2023-04-23T09:37:26.639Z,100094.94
2023-04-23T09:39:57.769Z,100102.25
2023-04-23T09:42:29.948Z,100107.03
2023-04-23T09:45:04.659Z,100100.34
2023-04-23T09:47:43.323Z,100101.78
2023-04-23T09:50:27.030Z,100094.19
2023-04-23T09:53:00.923Z,100110.16
2023-04-23T09:55:35.878Z,100112.09
2023-04-23T09:58:07.180Z,100113.56
2023-04-23T10:00:41.532Z,100115.19
2023-04-23T10:03:12.678Z,100120.94
2023-04-23T10:06:00.517Z,100124.22
2023-04-23T10:08:40.990Z,100114.66
2023-04-23T10:14:02.077Z,100132.72
2023-04-23T10:16:49.121Z,100132.06
2023-04-23T10:19:49.565Z,100136.00
2023-04-23T10:22:55.780Z,100142.97
2023-04-23T10:25:38.408Z,100140.09
2023-04-23T10:28:17.969Z,100144.78
2023-04-23T10:30:57.322Z,100155.34
2023-04-23T10:33:45.967Z,100148.25
2023-04-23T10:36:27.998Z,100147.75
2023-04-23T10:39:01.294Z,100160.78
2023-04-23T10:41:42.414Z,100154.66
2023-04-23T10:44:17.604Z,100157.13
2023-04-23T10:46:57.070Z,100151.13
2023-04-23T10:49:37.208Z,100155.53
2023-04-23T10:52:20.636Z,100153.63
2023-04-23T10:54:53.880Z,100145.28
2023-04-23T10:57:28.684Z,100138.91
2023-04-23T10:59:59.260Z,100147.13
2023-04-23T11:02:52.662Z,100145.81
2023-04-23T11:05:28.130Z,100149.84
2023-04-23T11:08:18.978Z,100144.94
2023-04-23T11:11:02.504Z,100151.19
2023-04-23T11:13:46.555Z,100149.34
2023-04-23T11:16:25.271Z,100146.44
2023-04-23T11:19:05.910Z,100152.50
2023-04-23T11:22:08.550Z,100145.84
2023-04-23T11:24:43.259Z,100154.41
2023-04-23T11:27:15.002Z,100151.44
2023-04-23T11:29:49.989Z,100156.63
2023-04-23T11:32:23.167Z,100161.50
2023-04-23T11:34:53.805Z,100154.38
2023-04-23T11:37:28.040Z,100154.84
2023-04-23T11:40:00.621Z,100155.78
2023-04-23T11:42:33.688Z,100153.25
2023-04-23T11:45:11.202Z,100156.06
2023-04-23T11:47:53.610Z,100161.94
2023-04-23T11:50:32.655Z,100162.25
2023-04-23T11:53:14.789Z,100160.03
2023-04-23T11:55:52.214Z,100161.78
2023-04-23T11:58:22.374Z,100162.16
2023-04-23T12:01:00.881Z,100160.47
2023-04-23T12:03:31.196Z,100154.59
2023-04-23T12:06:02.695Z,100158.34
2023-04-23T12:08:42.409Z,100150.34
2023-04-23T12:11:15.425Z,100159.22
2023-04-23T12:13:48.644Z,100161.31
2023-04-23T12:16:21.399Z,100159.66
2023-04-23T12:19:00.104Z,100153.19
2023-04-23T12:21:34.422Z,100146.00
2023-04-23T12:24:08.325Z,100143.53
2023-04-23T12:26:45.170Z,100160.69
2023-04-23T12:29:18.456Z,100170.22
2023-04-23T12:31:58.304Z,100173.13
2023-04-23T12:34:32.813Z,100176.13
2023-04-23T12:37:36.514Z,100179.22
2023-04-23T12:40:39.220Z,100183.22
2023-04-23T12:43:19.179Z,100180.88
2023-04-23T12:45:52.470Z,100174.38
2023-04-23T12:48:45.849Z,100181.78
2023-04-23T12:51:16.489Z,100177.50
2023-04-23T12:53:48.892Z,100188.25
2023-04-23T12:56:29.874Z,100168.56
2023-04-23T12:59:05.361Z,100172.09
2023-04-23T13:01:48.194Z,100166.13
2023-04-23T13:04:25.015Z,100175.22
2023-04-23T13:06:55.305Z,100167.16
2023-04-23T13:09:28.366Z,100157.41
2023-04-23T13:12:02.841Z,100173.34
2023-04-23T13:14:33.239Z,100156.72
2023-04-23T13:17:03.492Z,100155.13
2023-04-23T13:19:40.085Z,100148.50
2023-04-23T13:22:10.732Z,100145.31
2023-04-23T13:29:01.345Z,100151.66
2023-04-23T13:31:42.931Z,100151.72
2023-04-23T13:34:13.942Z,100133.88
2023-04-23T13:36:47.644Z,100135.38
2023-04-23T13:39:23.837Z,100142.88
2023-04-23T13:42:08.908Z,100140.31
2023-04-23T13:44:47.689Z,100137.69
2023-04-23T13:47:25.970Z,100144.44
2023-04-23T13:50:36.230Z,100121.59
2023-04-23T13:53:08.076Z,100124.56
2023-04-23T13:55:38.502Z,100119.22
2023-04-23T13:58:50.497Z,100116.84
2023-04-23T14:01:23.642Z,100113.22
2023-04-23T14:04:13.612Z,100117.47
2023-04-23T14:08:25.419Z,100120.41
2023-04-23T14:15:02.660Z,100112.47
2023-04-23T14:18:04.958Z,100109.97
2023-04-23T14:27:17.526Z,100108.16
2023-04-23T14:29:53.690Z,100107.81
2023-04-23T14:36:01.436Z,100102.25
2023-04-23T14:38:44.470Z,100095.03
2023-04-23T14:44:28.060Z,100088.53
2023-04-23T14:47:10.244Z,100079.44
2023-04-23T14:50:01.318Z,100080.81
2023-04-23T14:53:14.664Z,100070.06
2023-04-23T14:55:53.934Z,100083.56
2023-04-23T14:58:42.667Z,100076.69
2023-04-23T15:01:39.692Z,100080.44
2023-04-23T15:07:45.031Z,100078.31
2023-04-23T15:10:15.592Z,100063.75
2023-04-23T15:12:59.787Z,100060.69
2023-04-23T15:15:44.326Z,100058.50
2023-04-23T15:18:16.696Z,100063.38
2023-04-23T15:20:47.399Z,100069.16
2023-04-23T15:23:21.229Z,100062.69
2023-04-23T15:25:52.800Z,100050.19
2023-04-23T15:28:26.534Z,100049.91
2023-04-23T15:30:56.809Z,100049.81
2023-04-23T15:33:26.879Z,100048.09
2023-04-23T15:35:59.393Z,100050.72
2023-04-23T15:38:31.121Z,100043.44
2023-04-23T15:41:04.440Z,100044.41
2023-04-23T15:43:38.197Z,100038.88
2023-04-23T15:46:08.383Z,100047.94
2023-04-23T15:48:38.548Z,100052.59
2023-04-23T15:51:09.917Z,100047.84
2023-04-23T15:53:40.049Z,100037.72
2023-04-23T15:56:10.166Z,100036.78
2023-04-23T15:58:42.937Z,100045.78
2023-04-23T16:01:13.224Z,100046.22
2023-04-23T16:03:53.449Z,100033.22
2023-04-23T16:06:32.167Z,100036.13
2023-04-23T16:09:02.467Z,100034.50
2023-04-23T16:11:33.116Z,100029.41
2023-04-23T16:14:09.565Z,100026.38
2023-04-23T16:16:40.827Z,100011.84
2023-04-23T16:19:18.122Z,100018.81
2023-04-23T16:21:48.222Z,100023.59
2023-04-23T16:24:23.464Z,100021.03
2023-04-23T16:27:08.790Z,100016.44
2023-04-23T16:29:43.523Z,100019.81
2023-04-23T16:32:14.195Z,100019.13
2023-04-23T16:34:46.581Z,100008.84
2023-04-23T16:37:16.943Z,100012.81
2023-04-23T16:39:50.331Z,100003.00
2023-04-23T16:42:26.954Z,100005.69
2023-04-23T16:45:06.400Z,100003.31
2023-04-23T16:47:54.087Z,99996.38
2023-04-23T16:50:34.468Z,100001.69
2023-04-23T16:53:06.482Z,100001.88
2023-04-23T16:55:37.698Z,99998.38
2023-04-23T16:58:11.013Z,99998.91
2023-04-23T17:00:45.259Z,99998.00
2023-04-23T17:03:18.724Z,99997.75
2023-04-23T17:06:17.213Z,99993.28
2023-04-23T17:08:53.122Z,99987.09
2023-04-23T17:11:29.002Z,99982.38
2023-04-23T17:14:03.010Z,99986.31
2023-04-23T17:16:35.943Z,99976.50
2023-04-23T17:19:14.393Z,99977.50
2023-04-23T17:21:45.779Z,99974.47
2023-04-23T17:24:22.820Z,99978.44
2023-04-23T17:27:02.922Z,99977.75
2023-04-23T17:30:06.937Z,99973.22
2023-04-23T17:33:10.790Z,99967.31
2023-04-23T17:35:41.247Z,99961.28
2023-04-23T17:38:11.389Z,99964.09
2023-04-23T17:40:42.619Z,99967.50
2023-04-23T17:43:12.795Z,99964.69
2023-04-23T17:45:43.399Z,99962.38
2023-04-23T17:48:25.290Z,99950.69
2023-04-23T17:51:03.518Z,99957.34
2023-04-23T17:53:36.583Z,99958.97
2023-04-23T17:56:06.656Z,99968.78
2023-04-23T17:58:40.574Z,99956.81
2023-04-23T18:01:11.709Z,99958.63
2023-04-23T18:03:45.228Z,99963.97
2023-04-23T18:06:17.694Z,99958.91
2023-04-23T18:08:47.921Z,99964.66
2023-04-23T18:11:21.449Z,99955.56
2023-04-23T18:13:53.696Z,99959.28
2023-04-23T18:16:27.055Z,99959.97
2023-04-23T18:18:59.883Z,99968.66
2023-04-23T18:21:31.363Z,99970.75
2023-04-23T18:24:01.510Z,99973.53
2023-04-23T18:26:31.658Z,99972.34
2023-04-23T18:29:01.692Z,99974.16
2023-04-23T18:31:32.033Z,99968.44
2023-04-23T18:34:06.532Z,99977.75
2023-04-23T18:36:39.835Z,99970.59
2023-04-23T18:39:12.035Z,99971.50
2023-04-23T18:41:42.164Z,99983.47
2023-04-23T18:44:13.336Z,99988.47
2023-04-23T18:46:43.563Z,99979.91
2023-04-23T18:49:41.636Z,99992.34
2023-04-23T18:52:12.164Z,99995.91
2023-04-23T18:54:44.319Z,99993.50
2023-04-23T18:57:14.397Z,99992.50
2023-04-23T18:59:44.595Z,99985.13
2023-04-23T19:02:28.221Z,99986.41
2023-04-23T19:05:07.902Z,99983.13
2023-04-23T19:07:40.697Z,99977.81
2023-04-23T19:10:12.789Z,99980.19
2023-04-23T19:12:42.851Z,99976.94
2023-04-23T19:15:15.217Z,99968.34
2023-04-23T19:17:45.490Z,99970.19
2023-04-23T19:20:18.809Z,99984.19
2023-04-23T19:22:49.019Z,99980.69
2023-04-23T19:25:20.793Z,99973.09
2023-04-23T19:27:51.096Z,99977.47
2023-04-23T19:30:21.343Z,99980.41
2023-04-23T19:32:51.669Z,99981.53
2023-04-23T19:35:24.499Z,99975.41
2023-04-23T19:37:56.709Z,99971.50
2023-04-23T19:40:26.831Z,99968.22
2023-04-23T19:42:57.010Z,99966.59
2023-04-23T19:45:27.181Z,99967.69
2023-04-23T19:47:57.343Z,99965.88
2023-04-23T19:50:30.699Z,99968.38
2023-04-23T19:53:01.094Z,99966.94
2023-04-23T19:55:31.261Z,99955.81
2023-04-23T19:58:01.450Z,99955.66
2023-04-23T20:00:33.997Z,99952.78
2023-04-23T20:03:04.214Z,99956.09
2023-04-23T20:05:37.576Z,99964.75
2023-04-23T20:08:15.234Z,99954.69
2023-04-23T20:10:47.673Z,99953.69
2023-04-23T20:13:18.062Z,99945.28
2023-04-23T20:15:49.957Z,99947.72
2023-04-23T20:18:21.861Z,99946.34
2023-04-23T20:20:54.560Z,99944.13
2023-04-23T20:23:24.725Z,99936.72
2023-04-23T20:25:54.900Z,99942.28
2023-04-23T20:28:24.976Z,99939.63
2023-04-23T20:30:55.006Z,99939.84
2023-04-23T20:33:25.092Z,99935.09
2023-04-23T20:35:59.102Z,99938.63
2023-04-23T20:38:30.794Z,99932.66
2023-04-23T20:41:03.261Z,99935.16
2023-04-23T20:43:35.271Z,99933.72
2023-04-23T20:46:06.903Z,99927.38
2023-04-23T20:48:37.203Z,99929.00
2023-04-23T20:51:15.929Z,99925.09
2023-04-23T20:53:46.048Z,99920.78
2023-04-23T20:56:16.660Z,99914.41
2023-04-23T20:58:47.103Z,99920.97
2023-04-23T21:01:17.332Z,99910.94
2023-04-23T21:03:49.075Z,99904.78
2023-04-23T21:06:25.406Z,99900.88
2023-04-23T21:08:55.372Z,99893.50
2023-04-23T21:11:26.419Z,99889.78
2023-04-23T21:13:56.844Z,99892.25
2023-04-23T21:16:28.104Z,99893.50
2023-04-23T21:18:58.309Z,99886.50
2023-04-23T21:21:33.112Z,99880.34
2023-04-23T21:24:18.229Z,99877.06
2023-04-23T21:26:48.388Z,99879.53
2023-04-23T21:29:18.514Z,99868.06
2023-04-23T21:31:54.127Z,99873.78
2023-04-23T21:34:24.392Z,99867.00
2023-04-23T21:36:59.363Z,99856.53
2023-04-23T21:39:29.494Z,99854.91
2023-04-23T21:41:59.608Z,99852.25
2023-04-23T21:44:31.308Z,99855.53
2023-04-23T21:47:01.465Z,99843.63
2023-04-23T21:49:31.811Z,99846.50
2023-04-23T21:52:04.527Z,99847.13
2023-04-23T21:54:34.626Z,99835.63
2023-04-23T21:57:04.897Z,99828.88
2023-04-23T21:59:34.980Z,99834.41
2023-04-23T22:02:05.154Z,99840.75
2023-04-23T22:04:35.268Z,99840.34
2023-04-23T22:07:12.601Z,99838.47
2023-04-23T22:09:43.252Z,99838.88
2023-04-23T22:12:13.582Z,99846.91
2023-04-23T22:14:43.949Z,99836.03
2023-04-23T22:17:14.554Z,99836.22
2023-04-23T22:19:44.728Z,99842.16
2023-04-23T22:22:17.545Z,99849.59
2023-04-23T22:24:47.965Z,99852.03
2023-04-23T22:27:18.256Z,99853.47
2023-04-23T22:29:48.277Z,99858.63
2023-04-23T22:32:18.308Z,99855.13
2023-04-23T22:34:48.567Z,99860.44
2023-04-23T22:37:21.443Z,99854.88
2023-04-23T22:39:51.681Z,99857.34
2023-04-23T22:42:21.852Z,99855.91
2023-04-23T22:44:52.037Z,99846.69
2023-04-23T22:47:23.229Z,99841.75
2023-04-23T22:49:53.697Z,99836.63
2023-04-23T22:52:27.260Z,99831.31
2023-04-23T22:54:57.836Z,99831.09
2023-04-23T22:57:28.196Z,99830.06
2023-04-23T22:59:58.828Z,99827.41
2023-04-23T23:02:29.312Z,99827.00
2023-04-23T23:04:59.376Z,99828.63
2023-04-23T23:07:32.122Z,99814.91
2023-04-23T23:10:03.866Z,99803.81
2023-04-23T23:12:33.969Z,99806.50
2023-04-23T23:15:04.790Z,99801.16
2023-04-23T23:17:35.097Z,99810.59
2023-04-23T23:20:07.323Z,99800.34
2023-04-23T23:22:40.533Z,99793.13
2023-04-23T23:25:12.037Z,99780.78
2023-04-23T23:27:42.327Z,99776.94
2023-04-23T23:30:13.354Z,99774.47
2023-04-23T23:32:43.665Z,99765.41
2023-04-23T23:35:13.791Z,99766.44
2023-04-23T23:37:46.797Z,99760.91
2023-04-23T23:40:16.870Z,99754.75
2023-04-23T23:42:46.913Z,99752.50
2023-04-23T23:45:17.424Z,99750.66
2023-04-23T23:47:51.096Z,99748.00
2023-04-23T23:50:21.888Z,99753.94
2023-04-23T23:52:55.181Z,99745.31
2023-04-23T23:55:25.282Z,99743.91
2023-04-23T23:57:55.637Z,99736.94
